Time;durP1;ratioP1;P1;durP2;ratioP2;P2;SDS_P1;SDS_P2;PMS_P1;PMS_P2;Temp;Humidity;BMP_temperature;BMP_pressure;BME280_temperature;BME280_humidity;BME280_pressure;Samples;Min_cycle;Max_cycle;Signal;HPM_P1;HPM_P2
2023/02/05 00:07:56;;;;;;;11.77;6.60;;;8.20;99.90;;;;;;20654797;28;20049;-44
2023/02/05 00:17:57;;;;;;;9.63;6.30;;;8.20;99.90;;;;;;20645887;28;20041;-42
2023/02/05 00:27:59;;;;;;;12.25;7.28;;;8.10;99.90;;;;;;20642376;28;20050;-42
2023/02/05 00:38:00;;;;;;;9.90;5.97;;;8.10;99.90;;;;;;20643374;28;20034;-42
2023/02/05 00:48:02;;;;;;;13.93;5.93;;;8.10;99.90;;;;;;20636046;28;20259;-42
2023/02/05 00:58:03;;;;;;;10.40;6.63;;;8.10;99.90;;;;;;20657025;28;20587;-42
2023/02/05 01:08:06;;;;;;;11.55;5.95;;;8.20;99.90;;;;;;20662511;28;20049;-42
2023/02/05 01:18:07;;;;;;;10.20;6.22;;;8.20;99.90;;;;;;20659703;28;20029;-42
2023/02/05 01:28:08;;;;;;;10.52;5.70;;;8.10;99.90;;;;;;20648910;28;20053;-42
2023/02/05 01:38:13;;;;;;;11.30;5.03;;;8.10;99.90;;;;;;20670497;28;20258;-42
2023/02/05 01:48:14;;;;;;;9.20;4.80;;;8.10;99.90;;;;;;20673393;28;20042;-42
2023/02/05 01:58:15;;;;;;;11.27;4.75;;;8.00;99.90;;;;;;20672946;28;20053;-42
2023/02/05 02:08:16;;;;;;;7.38;4.35;;;8.00;99.90;;;;;;20672131;28;20049;-42
2023/02/05 02:18:25;;;;;;;10.52;5.20;;;8.00;99.90;;;;;;20679870;28;20048;-42
2023/02/05 02:28:33;;;;;;;7.35;3.88;;;7.90;99.90;;;;;;20671676;28;20425;-42
2023/02/05 02:38:44;;;;;;;6.13;3.10;;;7.90;99.90;;;;;;20663527;28;20160;-42
2023/02/05 02:48:46;;;;;;;5.55;3.30;;;7.80;99.90;;;;;;20659288;28;20285;-42
2023/02/05 02:58:57;;;;;;;3.22;1.83;;;7.60;99.90;;;;;;20661388;28;20034;-42
2023/02/05 03:09:14;;;;;;;3.85;2.67;;;7.50;99.90;;;;;;20660498;28;20394;-42
2023/02/05 03:19:15;;;;;;;7.03;2.45;;;7.50;99.90;;;;;;20660404;28;20694;-42
2023/02/05 03:29:25;;;;;;;1.90;1.13;;;7.50;99.90;;;;;;20663987;28;20050;-42
2023/02/05 03:39:38;;;;;;;2.35;0.77;;;7.50;99.90;;;;;;21596607;23;20041;-41
2023/02/05 03:50:18;;;;;;;2.47;1.08;;;7.50;99.90;;;;;;20635048;28;20045;-41
2023/02/05 04:00:19;;;;;;;2.25;0.80;;;7.60;99.90;;;;;;20648686;28;20516;-41
2023/02/05 04:10:20;;;;;;;2.45;1.17;;;7.50;99.90;;;;;;20641026;28;20058;-41
2023/02/05 04:20:21;;;;;;;11.52;1.65;;;7.50;99.90;;;;;;20615647;28;20064;-41
2023/02/05 04:30:22;;;;;;;3.05;1.50;;;7.50;99.90;;;;;;20643931;28;20040;-41
2023/02/05 04:40:23;;;;;;;4.05;1.58;;;7.50;99.90;;;;;;20602556;28;20057;-40
2023/02/05 04:50:25;;;;;;;3.00;1.40;;;7.50;99.90;;;;;;20511442;28;21509;-41
2023/02/05 05:00:26;;;;;;;1.95;0.85;;;7.60;99.90;;;;;;20564762;28;20085;-39
2023/02/05 05:10:27;;;;;;;1.27;0.40;;;7.60;99.90;;;;;;20563324;28;20050;-39
2023/02/05 05:20:28;;;;;;;1.90;0.88;;;7.50;99.90;;;;;;20556743;28;20046;-39
2023/02/05 05:30:29;;;;;;;1.23;0.40;;;7.40;99.90;;;;;;20561177;28;20725;-39
2023/02/05 05:50:50;;;;;;;1.67;0.32;;;7.00;99.90;;;;;;20558854;28;20553;-39
2023/02/05 06:00:53;;;;;;;6.72;1.63;;;6.90;99.90;;;;;;20556207;28;20054;-39
2023/02/05 06:10:54;;;;;;;1.92;1.08;;;6.80;99.90;;;;;;20555482;28;20046;-40
2023/02/05 06:20:55;;;;;;;1.58;0.90;;;6.70;99.90;;;;;;20554236;28;20043;-40
2023/02/05 06:30:56;;;;;;;1.88;0.70;;;6.70;99.90;;;;;;20554293;28;20045;-40
2023/02/05 06:40:57;;;;;;;1.40;0.35;;;6.70;99.90;;;;;;20552287;28;20042;-40
2023/02/05 06:50:58;;;;;;;2.83;0.60;;;6.70;99.90;;;;;;20551930;28;20050;-41
2023/02/05 07:01:01;;;;;;;2.33;0.52;;;6.70;99.90;;;;;;20550006;28;20045;-41
2023/02/05 07:11:02;;;;;;;7.28;1.73;;;6.60;99.90;;;;;;20550038;28;20050;-41
2023/02/05 07:21:08;;;;;;;6.72;1.52;;;6.80;99.90;;;;;;20553733;28;20038;-41
2023/02/05 07:31:13;;;;;;;3.53;1.20;;;6.60;99.90;;;;;;20550327;28;20061;-41
2023/02/05 07:41:15;;;;;;;4.38;1.55;;;6.70;99.90;;;;;;20547261;28;20417;-41
2023/02/05 07:51:21;;;;;;;3.63;1.65;;;6.60;99.90;;;;;;20548342;28;20046;-41
2023/02/05 08:01:22;;;;;;;13.30;2.27;;;6.70;99.90;;;;;;20554019;28;20037;-41
2023/02/05 08:11:23;;;;;;;4.95;1.13;;;6.70;99.90;;;;;;20546053;28;20049;-41
2023/02/05 08:21:26;;;;;;;16.50;3.05;;;6.90;99.90;;;;;;20552182;28;20042;-41
2023/02/05 08:31:27;;;;;;;9.88;2.47;;;7.00;98.30;;;;;;20523085;28;20043;-41
2023/02/05 08:41:28;;;;;;;17.15;3.08;;;7.00;94.40;;;;;;20535508;28;20054;-41
2023/02/05 08:51:29;;;;;;;12.25;2.45;;;7.10;85.40;;;;;;20521305;28;20046;-42
2023/02/05 09:01:30;;;;;;;4.25;1.27;;;7.30;72.00;;;;;;20538885;28;20050;-42
2023/02/05 09:11:31;;;;;;;5.75;2.80;;;7.50;60.90;;;;;;20529693;28;20057;-42
2023/02/05 09:21:33;;;;;;;9.60;2.70;;;7.70;50.30;;;;;;20543866;28;20046;-41
2023/02/05 09:31:34;;;;;;;4.50;2.05;;;7.80;46.00;;;;;;20526840;28;20050;-41
2023/02/05 09:41:50;;;;;;;7.53;2.80;;;7.80;37.90;;;;;;20527555;28;20049;-41
2023/02/05 09:51:58;;;;;;;5.90;1.85;;;7.90;32.90;;;;;;20549516;28;20069;-41
2023/02/05 10:02:02;;;;;;;10.20;3.17;;;7.90;31.10;;;;;;20546763;28;20042;-41
2023/02/05 10:12:35;;;;;;;11.30;2.88;;;8.00;28.30;;;;;;20544830;28;20330;-41
2023/02/05 10:22:50;;;;;;;17.10;2.45;;;8.40;25.20;;;;;;20522104;28;20627;-41
2023/02/05 10:32:57;;;;;;;17.85;4.47;;;8.60;21.30;;;;;;20551089;28;20553;-42
2023/02/05 10:43:18;;;;;;;4.53;1.97;;;8.70;18.00;;;;;;20549375;28;20076;-41
2023/02/05 10:53:22;;;;;;;9.70;2.47;;;8.50;18.10;;;;;;20545944;28;20461;-42
2023/02/05 11:03:23;;;;;;;10.10;2.58;;;8.60;15.50;;;;;;20548734;28;20034;-41
2023/02/05 11:13:26;;;;;;;3.75;1.25;;;8.60;15.10;;;;;;20544346;28;20482;-42
2023/02/05 11:23:31;;;;;;;4.60;1.50;;;8.60;13.10;;;;;;20548966;28;20031;-42
2023/02/05 11:33:32;;;;;;;7.80;2.95;;;8.70;10.40;;;;;;20545032;28;20554;-42
2023/02/05 11:43:50;;;;;;;5.70;2.17;;;9.00;10.50;;;;;;20546692;28;20137;-42
2023/02/05 11:53:58;;;;;;;8.95;2.60;;;9.60;7.90;;;;;;20544049;28;20050;-41
2023/02/05 12:04:15;;;;;;;5.15;2.10;;;9.80;3.20;;;;;;20546695;28;20082;-41
2023/02/05 12:14:40;;;;;;;18.93;3.23;;;10.20;1.20;;;;;;20544892;28;20531;-41
2023/02/05 12:24:59;;;;;;;4.57;1.30;;;10.30;1.00;;;;;;20547561;28;20042;-42
2023/02/05 12:35:11;;;;;;;4.28;1.67;;;10.90;1.00;;;;;;20547119;28;20046;-41
2023/02/05 12:45:31;;;;;;;11.85;1.42;;;10.30;1.00;;;;;;20549979;28;20546;-41
2023/02/05 12:55:43;;;;;;;2.40;0.88;;;9.60;1.00;;;;;;20550916;28;20479;-41
2023/02/05 13:05:51;;;;;;;19.30;2.47;;;9.60;1.00;;;;;;20557692;28;20073;-42
2023/02/05 13:16:08;;;;;;;4.43;2.08;;;9.60;1.00;;;;;;20561025;28;20033;-42
2023/02/05 13:36:57;;;;;;;13.18;1.67;;;10.50;1.00;;;;;;20549983;28;20050;-42
2023/02/05 13:47:21;;;;;;;9.80;1.98;;;10.00;1.00;;;;;;20551696;28;20051;-42
2023/02/05 13:57:49;;;;;;;7.88;4.40;;;10.20;1.00;;;;;;20554442;28;20050;-42
2023/02/05 14:07:50;;;;;;;6.10;2.17;;;10.00;1.00;;;;;;20463973;28;20070;-42
2023/02/05 14:17:53;;;;;;;8.52;2.63;;;9.80;1.00;;;;;;20511587;28;20384;-42
2023/02/05 14:27:55;;;;;;;8.70;2.67;;;9.50;1.00;;;;;;20457507;28;20050;-42
2023/02/05 14:38:01;;;;;;;8.10;2.08;;;9.30;1.00;;;;;;20465518;28;20431;-42
2023/02/05 14:48:02;;;;;;;6.00;2.28;;;9.10;1.00;;;;;;20521890;28;20043;-42
2023/02/05 14:58:09;;;;;;;6.93;2.63;;;9.30;1.00;;;;;;20483887;28;20076;-42
2023/02/05 15:08:15;;;;;;;13.27;3.20;;;9.10;1.00;;;;;;20489966;28;20046;-42
2023/02/05 15:18:25;;;;;;;6.22;2.30;;;9.00;1.00;;;;;;20530170;28;20050;-42
2023/02/05 15:28:30;;;;;;;18.38;2.75;;;8.80;1.00;;;;;;20530888;28;20053;-42
2023/02/05 15:38:43;;;;;;;7.68;3.00;;;8.40;1.20;;;;;;20529971;28;21449;-42
2023/02/05 15:48:44;;;;;;;7.40;3.17;;;8.20;3.20;;;;;;20495578;28;20418;-42
2023/02/05 15:58:50;;;;;;;16.65;3.55;;;8.10;6.10;;;;;;20473418;28;20069;-42
2023/02/05 16:08:51;;;;;;;12.48;4.07;;;7.90;7.30;;;;;;20483690;28;20553;-42
2023/02/05 16:18:57;;;;;;;10.35;3.63;;;7.80;11.00;;;;;;20480015;28;20406;-42
2023/02/05 16:29:04;;;;;;;8.13;3.05;;;7.70;10.30;;;;;;20537772;28;20050;-42
2023/02/05 16:39:14;;;;;;;6.75;3.05;;;7.60;11.50;;;;;;20544373;28;21778;-42
2023/02/05 16:49:21;;;;;;;6.55;2.72;;;7.50;14.70;;;;;;20552335;28;20050;-42
2023/02/05 16:59:27;;;;;;;22.23;4.17;;;7.40;15.60;;;;;;20539679;28;20041;-42
2023/02/05 17:09:38;;;;;;;7.32;2.35;;;7.30;19.80;;;;;;20549015;28;20923;-42
2023/02/05 17:19:39;;;;;;;6.10;2.10;;;7.20;23.10;;;;;;20545557;28;20042;-42
2023/02/05 17:29:40;;;;;;;6.03;2.08;;;7.20;25.60;;;;;;20539352;28;20038;-41
2023/02/05 17:39:41;;;;;;;9.88;3.08;;;7.10;29.80;;;;;;20523062;28;20057;-41
2023/02/05 17:49:42;;;;;;;5.32;2.47;;;7.30;31.10;;;;;;20546085;28;20498;-42
2023/02/05 17:59:44;;;;;;;6.70;2.55;;;7.30;28.70;;;;;;20551144;28;20034;-42
2023/02/05 18:09:45;;;;;;;19.60;3.45;;;7.30;30.50;;;;;;20546082;28;20038;-42
2023/02/05 18:19:46;;;;;;;8.80;2.80;;;7.20;30.90;;;;;;20547058;28;20073;-42
2023/02/05 18:29:47;;;;;;;8.00;3.20;;;7.30;30.70;;;;;;20545789;28;20038;-42
2023/02/05 18:39:49;;;;;;;7.15;3.15;;;7.10;35.40;;;;;;20543336;28;20050;-42
2023/02/05 18:49:50;;;;;;;15.68;3.78;;;7.00;38.40;;;;;;20541755;28;20243;-42
2023/02/05 18:59:52;;;;;;;7.03;3.33;;;6.80;44.90;;;;;;20489511;28;20046;-41
2023/02/05 19:09:55;;;;;;;8.00;2.95;;;6.70;55.20;;;;;;20533926;28;20498;-42
2023/02/05 19:19:57;;;;;;;9.57;3.10;;;6.60;58.00;;;;;;20534950;28;20047;-42
2023/02/05 19:29:58;;;;;;;7.93;3.53;;;6.30;70.90;;;;;;20539566;28;20039;-42
2023/02/05 19:40:01;;;;;;;8.82;2.67;;;6.10;83.30;;;;;;20536130;28;20047;-42
2023/02/05 19:50:02;;;;;;;6.28;2.90;;;6.00;85.90;;;;;;20533331;28;20189;-42
2023/02/05 20:00:03;;;;;;;6.82;2.72;;;5.90;91.20;;;;;;20534103;28;20490;-42
2023/02/05 20:10:05;;;;;;;15.88;2.97;;;5.80;93.20;;;;;;20534828;28;20322;-42
2023/02/05 20:20:06;;;;;;;6.28;2.63;;;5.70;98.20;;;;;;20539609;28;20039;-42
2023/02/05 20:40:31;;;;;;;9.38;2.92;;;5.50;99.90;;;;;;20533570;28;20566;-42
2023/02/05 20:50:33;;;;;;;7.25;2.95;;;5.40;99.90;;;;;;20537178;28;20063;-41
2023/02/05 21:00:34;;;;;;;6.72;2.90;;;5.30;99.90;;;;;;20533071;28;20470;-42
2023/02/05 21:10:35;;;;;;;5.45;1.38;;;5.20;99.90;;;;;;20550785;28;20046;-42
2023/02/05 21:20:36;;;;;;;4.75;2.17;;;5.10;99.90;;;;;;20563682;28;20075;-42
2023/02/05 21:30:37;;;;;;;7.22;3.13;;;5.00;99.90;;;;;;20564454;28;20045;-42
2023/02/05 21:40:38;;;;;;;7.18;2.63;;;4.90;99.90;;;;;;20565120;28;20529;-42
2023/02/05 21:50:40;;;;;;;8.13;2.65;;;4.80;99.90;;;;;;20561717;28;20073;-42
2023/02/05 22:00:41;;;;;;;6.72;3.47;;;4.70;99.90;;;;;;20562722;28;20038;-42
2023/02/05 22:10:42;;;;;;;4.20;2.10;;;4.50;99.90;;;;;;20560926;28;20047;-42
2023/02/05 22:20:43;;;;;;;9.35;2.83;;;4.30;99.90;;;;;;20557331;28;20038;-42
2023/02/05 22:30:44;;;;;;;8.65;2.97;;;4.30;99.90;;;;;;20548980;28;20378;-42
2023/02/05 22:40:45;;;;;;;9.07;2.80;;;4.20;99.90;;;;;;20551407;28;20043;-42
2023/02/05 22:50:46;;;;;;;7.05;2.40;;;4.20;99.90;;;;;;20552627;28;20678;-42
2023/02/05 23:00:47;;;;;;;5.30;2.42;;;4.30;99.90;;;;;;20550764;28;20042;-42
2023/02/05 23:10:48;;;;;;;5.05;2.50;;;4.40;99.90;;;;;;20554339;28;22238;-42
2023/02/05 23:20:49;;;;;;;3.65;2.00;;;4.50;99.90;;;;;;20550570;28;20043;-42
2023/02/05 23:30:50;;;;;;;16.30;3.53;;;4.40;99.90;;;;;;20552092;28;20054;-42
2023/02/05 23:40:53;;;;;;;3.97;1.88;;;4.50;99.90;;;;;;20545207;28;20057;-42
2023/02/05 23:50:55;;;;;;;8.23;2.85;;;4.60;99.90;;;;;;20551492;28;20527;-42
